Time;durP1;ratioP1;P1;durP2;ratioP2;P2;SDS_P1;SDS_P2;PMS_P1;PMS_P2;Temp;Humidity;BMP_temperature;BMP_pressure;BME280_temperature;BME280_humidity;BME280_pressure;Samples;Min_cycle;Max_cycle;Signal;HPM_P1;HPM_P2
2021/06/23 00:02:20;;;;;;;22.27;12.55;;;;;;;15.70;100.00;97930.66;5044074;28;20045;-80
2021/06/23 00:04:46;;;;;;;28.17;15.43;;;;;;;15.72;100.00;97936.59;5064886;28;20071;-80
2021/06/23 00:07:13;;;;;;;30.08;14.73;;;;;;;15.72;100.00;97931.16;5043507;28;20052;-80
2021/06/23 00:09:40;;;;;;;21.10;16.02;;;;;;;15.74;100.00;97912.50;5042339;28;20048;-82
2021/06/23 00:12:13;;;;;;;26.65;16.48;;;;;;;15.73;100.00;97900.75;5038927;28;20516;-81
2021/06/23 00:14:41;;;;;;;26.38;16.20;;;;;;;15.86;100.00;97893.38;5037109;28;20604;-81
2021/06/23 00:17:08;;;;;;;22.88;15.52;;;;;;;15.96;100.00;97909.28;5036432;28;20417;-80
2021/06/23 00:19:38;;;;;;;21.83;13.85;;;;;;;16.00;100.00;97913.69;5036400;28;20045;-81
2021/06/23 00:22:04;;;;;;;18.77;13.90;;;;;;;16.07;100.00;97905.75;5037235;28;20048;-81
2021/06/23 00:25:00;;;;;;;19.20;13.57;;;;;;;16.14;100.00;97911.41;5053565;28;20044;-81
2021/06/23 00:27:26;;;;;;;21.05;13.90;;;;;;;16.13;100.00;97923.47;5020049;28;20552;-82
2021/06/23 00:29:53;;;;;;;18.27;12.38;;;;;;;16.20;100.00;97920.19;5055323;28;20056;-81
2021/06/23 00:32:21;;;;;;;20.42;13.57;;;;;;;16.16;100.00;97911.88;5036426;28;20040;-80
2021/06/23 00:34:48;;;;;;;22.02;13.75;;;;;;;16.15;100.00;97910.28;5019357;28;20664;-81
2021/06/23 00:37:14;;;;;;;22.45;14.90;;;;;;;16.05;100.00;97908.00;5033382;28;20053;-80
2021/06/23 00:39:41;;;;;;;22.80;15.07;;;;;;;16.02;100.00;97914.19;5051915;28;20048;-81
2021/06/23 00:42:10;;;;;;;23.33;15.43;;;;;;;16.00;100.00;97912.94;5052957;28;20048;-80
2021/06/23 00:44:40;;;;;;;22.55;14.65;;;;;;;16.00;100.00;97915.66;5036591;28;20064;-80
2021/06/23 00:47:08;;;;;;;22.00;14.95;;;;;;;15.92;100.00;97917.38;5036029;28;20504;-81
2021/06/23 00:49:36;;;;;;;20.35;13.45;;;;;;;15.88;100.00;97919.19;5036834;28;20584;-80
2021/06/23 00:52:04;;;;;;;20.45;13.70;;;;;;;15.95;100.00;97924.84;5036268;28;20448;-81
2021/06/23 00:54:30;;;;;;;17.88;13.30;;;;;;;15.97;100.00;97916.34;5052991;28;20544;-80
2021/06/23 00:56:57;;;;;;;17.38;12.57;;;;;;;16.00;100.00;97915.66;5035381;28;20052;-79
2021/06/23 01:01:52;;;;;;;17.55;11.55;;;;;;;15.96;100.00;97899.16;5021393;28;20041;-82
2021/06/23 01:04:20;;;;;;;21.38;11.80;;;;;;;15.90;100.00;97894.25;5019906;28;20298;-82
2021/06/23 01:06:48;;;;;;;21.58;11.18;;;;;;;15.93;100.00;97905.31;5002339;28;20053;-80
2021/06/23 01:09:14;;;;;;;19.00;11.00;;;;;;;16.06;100.00;97895.16;5001342;28;20053;-82
2021/06/23 01:12:02;;;;;;;17.65;11.25;;;;;;;16.04;100.00;97892.78;4981418;28;20109;-80
2021/06/23 01:14:33;;;;;;;17.52;11.38;;;;;;;15.99;100.00;97887.56;4998486;28;20057;-81
2021/06/23 01:17:01;;;;;;;15.45;11.93;;;;;;;16.04;100.00;97894.72;4998785;28;20057;-82
2021/06/23 01:19:32;;;;;;;19.67;13.45;;;;;;;15.96;100.00;97888.22;4980987;28;20038;-82
2021/06/23 01:21:59;;;;;;;18.88;12.02;;;;;;;16.00;100.00;97878.19;4997650;28;20047;-81
2021/06/23 01:24:26;;;;;;;17.58;11.52;;;;;;;16.07;100.00;97894.03;4979225;28;20051;-84
2021/06/23 01:26:55;;;;;;;21.20;11.73;;;;;;;16.10;100.00;97890.63;4979500;28;20046;-82
2021/06/23 01:29:21;;;;;;;18.45;11.30;;;;;;;16.02;100.00;97899.72;4995713;28;20046;-81
2021/06/23 01:31:48;;;;;;;21.73;11.70;;;;;;;15.97;100.00;97894.50;4996922;28;20050;-82
2021/06/23 01:34:15;;;;;;;20.65;11.35;;;;;;;16.09;100.00;97898.00;4962940;28;20074;-83
2021/06/23 01:36:44;;;;;;;15.70;10.60;;;;;;;16.13;100.00;97909.81;4978946;28;20377;-84
2021/06/23 01:39:11;;;;;;;23.33;11.95;;;;;;;16.10;100.00;97907.78;4996780;28;20068;-84
2021/06/23 01:41:38;;;;;;;20.35;13.77;;;;;;;16.18;100.00;97923.25;4996929;28;20059;-82
2021/06/23 01:44:05;;;;;;;21.63;13.35;;;;;;;16.14;100.00;97922.34;4996117;28;20058;-83
2021/06/23 01:46:31;;;;;;;28.30;15.05;;;;;;;15.94;100.00;97926.00;4978241;28;20058;-81
2021/06/23 01:48:58;;;;;;;25.33;16.00;;;;;;;15.83;100.00;97933.06;4995939;28;20133;-82
2021/06/23 01:51:25;;;;;;;21.70;14.60;;;;;;;15.80;100.00;97936.47;4961564;28;20046;-83
2021/06/23 01:53:51;;;;;;;28.58;15.75;;;;;;;15.72;100.00;97936.59;4980402;28;20134;-81
2021/06/23 01:56:20;;;;;;;28.52;15.93;;;;;;;15.71;100.00;97952.19;4982491;28;20246;-82
2021/06/23 01:58:47;;;;;;;22.98;15.35;;;;;;;15.68;100.00;97947.41;5000320;28;20051;-83
2021/06/23 02:01:42;;;;;;;27.05;13.27;;;;;;;15.78;100.00;97957.88;4982728;28;20467;-81
2021/06/23 02:04:23;;;;;;;31.15;13.60;;;;;;;15.76;100.00;97953.88;5000505;28;20065;-81
2021/06/23 02:06:50;;;;;;;24.17;13.02;;;;;;;15.77;100.00;97950.81;5000796;28;20050;-81
2021/06/23 02:09:37;;;;;;;24.70;13.70;;;;;;;15.80;100.00;97960.25;5001067;28;20113;-81
2021/06/23 02:12:22;;;;;;;23.13;12.07;;;;;;;15.92;100.00;97960.25;5002511;28;20046;-83
2021/06/23 02:14:50;;;;;;;16.20;9.45;;;;;;;15.83;100.00;97943.97;4984923;28;20050;-80
2021/06/23 02:17:18;;;;;;;26.13;9.90;;;;;;;15.80;100.00;97947.38;4985846;28;20086;-83
2021/06/23 02:19:49;;;;;;;18.17;8.20;;;;;;;15.85;100.00;97946.38;4984638;28;20104;-82
2021/06/23 02:22:18;;;;;;;15.02;8.20;;;;;;;15.95;100.00;97954.91;5003014;28;20065;-83
2021/06/23 02:24:46;;;;;;;15.13;8.27;;;;;;;16.03;100.00;97954.00;4995574;28;20030;-79
2021/06/23 02:27:13;;;;;;;16.20;8.40;;;;;;;15.98;100.00;97951.50;5017419;28;20090;-80
2021/06/23 02:29:41;;;;;;;16.25;8.85;;;;;;;15.95;100.00;97946.72;5000710;28;20039;-79
2021/06/23 02:32:15;;;;;;;19.38;9.93;;;;;;;16.02;100.00;97951.63;5007778;28;20050;-82
2021/06/23 02:34:47;;;;;;;17.48;10.18;;;;;;;15.89;100.00;97947.28;4999385;28;20066;-83
2021/06/23 02:37:15;;;;;;;19.98;11.00;;;;;;;15.95;100.00;97951.41;5000625;28;20047;-82
2021/06/23 02:39:42;;;;;;;22.55;11.57;;;;;;;15.92;100.00;97947.41;5001525;28;20069;-81
2021/06/23 02:42:10;;;;;;;20.35;11.00;;;;;;;15.91;100.00;97936.81;4979852;28;20039;-80
2021/06/23 02:44:39;;;;;;;18.42;11.55;;;;;;;16.00;100.00;97942.97;4995942;28;20058;-81
2021/06/23 02:47:06;;;;;;;24.20;12.13;;;;;;;16.02;100.00;97949.69;4977038;28;20050;-80
2021/06/23 02:49:34;;;;;;;19.40;11.10;;;;;;;15.98;100.00;97942.50;4974550;28;20096;-81
2021/06/23 02:52:02;;;;;;;17.80;9.80;;;;;;;15.88;100.00;97951.16;4981546;28;20057;-80
2021/06/23 02:54:29;;;;;;;22.58;9.75;;;;;;;15.88;100.00;97951.94;4981019;28;20092;-79
2021/06/23 02:56:56;;;;;;;25.48;9.60;;;;;;;15.81;100.00;97943.53;4980242;28;20447;-81
2021/06/23 02:59:24;;;;;;;20.67;9.35;;;;;;;15.83;100.00;97949.44;4997578;28;20480;-83
2021/06/23 03:01:51;;;;;;;20.17;9.30;;;;;;;15.78;100.00;97946.16;4998236;28;20046;-83
2021/06/23 03:04:18;;;;;;;20.98;9.57;;;;;;;15.86;100.00;97945.22;4981174;28;20079;-81
2021/06/23 03:06:45;;;;;;;19.48;9.40;;;;;;;15.88;100.00;97953.88;5000188;28;20053;-81
2021/06/23 03:09:12;;;;;;;19.27;9.25;;;;;;;15.87;100.00;97944.09;4982524;28;20050;-79
2021/06/23 03:11:41;;;;;;;17.40;8.70;;;;;;;15.87;100.00;97953.06;4998853;28;20046;-81
2021/06/23 03:14:08;;;;;;;20.63;10.70;;;;;;;15.77;100.00;97950.03;4996890;28;20046;-81
2021/06/23 03:16:36;;;;;;;17.55;10.30;;;;;;;15.77;100.00;97950.81;4996799;28;20058;-80
2021/06/23 03:19:04;;;;;;;17.67;9.85;;;;;;;15.86;100.00;97953.44;4997261;28;20077;-80
2021/06/23 03:21:31;;;;;;;18.50;9.80;;;;;;;15.88;100.00;97949.22;4997481;28;20050;-79
2021/06/23 03:23:58;;;;;;;22.30;9.18;;;;;;;15.89;100.00;97950.03;4996830;28;20054;-78
2021/06/23 03:26:26;;;;;;;21.27;9.77;;;;;;;15.94;100.00;97945.13;4981033;28;20050;-80
2021/06/23 03:28:53;;;;;;;17.30;8.25;;;;;;;15.98;100.00;97946.03;4981925;28;20109;-81
2021/06/23 03:31:20;;;;;;;11.35;7.82;;;;;;;16.00;100.00;97951.94;4982065;28;20052;-79
2021/06/23 03:33:46;;;;;;;14.38;8.60;;;;;;;16.10;100.00;97965.13;4998170;28;20054;-81
2021/06/23 03:36:13;;;;;;;12.55;8.27;;;;;;;16.16;100.00;97957.50;4965279;28;20046;-81
2021/06/23 03:38:39;;;;;;;17.00;8.98;;;;;;;16.17;100.00;97950.91;4998996;28;20071;-81
2021/06/23 03:41:06;;;;;;;17.17;9.38;;;;;;;16.13;100.00;97952.75;4999427;28;20046;-82
2021/06/23 03:43:32;;;;;;;19.38;9.38;;;;;;;16.05;100.00;97959.91;4998596;28;20065;-81
2021/06/23 03:45:59;;;;;;;24.17;9.50;;;;;;;16.01;100.00;97961.72;4981400;28;20049;-81
2021/06/23 03:48:32;;;;;;;17.25;9.15;;;;;;;16.00;100.00;97965.59;4998434;28;20042;-80
2021/06/23 03:51:01;;;;;;;21.05;10.13;;;;;;;15.84;100.00;97977.56;4980842;28;20042;-82
2021/06/23 03:53:27;;;;;;;19.35;9.48;;;;;;;15.88;100.00;97970.25;4997825;28;20104;-81
2021/06/23 03:55:54;;;;;;;17.83;9.80;;;;;;;15.91;100.00;97977.78;4981666;28;20540;-79
2021/06/23 03:58:20;;;;;;;20.73;9.55;;;;;;;15.91;100.00;97975.84;4998263;28;20057;-81
2021/06/23 04:00:47;;;;;;;18.65;10.38;;;;;;;15.86;100.00;97970.63;4998512;28;20050;-81
2021/06/23 04:03:16;;;;;;;18.23;9.65;;;;;;;15.92;100.00;97987.56;4981295;28;20042;-79
2021/06/23 04:05:43;;;;;;;17.05;9.68;;;;;;;15.88;100.00;97976.53;4999056;28;20053;-78
2021/06/23 04:08:10;;;;;;;17.80;9.27;;;;;;;15.99;100.00;97979.59;5005041;28;20065;-79
2021/06/23 04:10:39;;;;;;;17.08;9.02;;;;;;;15.97;100.00;97982.69;4999487;28;20055;-80
2021/06/23 04:13:05;;;;;;;21.33;9.60;;;;;;;15.96;100.00;97983.00;4997225;28;20053;-80
2021/06/23 04:15:32;;;;;;;16.50;8.60;;;;;;;15.94;100.00;97990.75;4978384;28;20125;-81
2021/06/23 04:17:58;;;;;;;25.80;9.48;;;;;;;15.93;100.00;97998.13;4997498;28;20073;-80
2021/06/23 04:20:25;;;;;;;14.50;8.20;;;;;;;15.96;100.00;98004.84;4979885;28;20362;-81
2021/06/23 04:22:52;;;;;;;18.58;8.18;;;;;;;16.04;100.00;98009.41;4963624;28;20491;-81
2021/06/23 04:25:21;;;;;;;19.00;8.15;;;;;;;16.02;100.00;98007.03;4996127;28;20038;-81
2021/06/23 04:27:50;;;;;;;16.90;8.48;;;;;;;16.14;100.00;98017.97;4995469;28;20060;-80
2021/06/23 04:30:17;;;;;;;15.57;8.35;;;;;;;16.09;100.00;98010.00;4979349;28;20491;-80
2021/06/23 04:32:43;;;;;;;12.93;7.68;;;;;;;16.26;100.00;98005.44;4996343;28;20054;-80
2021/06/23 04:35:11;;;;;;;13.93;7.75;;;;;;;16.36;100.00;98004.97;4978402;28;20058;-82
2021/06/23 04:37:41;;;;;;;18.77;7.97;;;;;;;16.51;100.00;98018.72;4996636;28;20049;-81
2021/06/23 04:40:11;;;;;;;18.35;7.78;;;;;;;16.54;100.00;98004.38;4995251;28;20046;-80
2021/06/23 04:42:41;;;;;;;16.02;7.68;;;;;;;16.56;100.00;98012.25;4979199;28;20108;-81
2021/06/23 04:45:14;;;;;;;16.63;7.43;;;;;;;16.60;100.00;98007.69;4995542;28;20046;-78
2021/06/23 04:47:41;;;;;;;15.15;7.30;;;;;;;16.68;100.00;97998.56;4997235;28;20057;-81
2021/06/23 04:50:09;;;;;;;19.27;8.38;;;;;;;16.73;100.00;97996.38;4997122;28;20046;-81
2021/06/23 04:52:36;;;;;;;13.15;7.47;;;;;;;16.75;100.00;98007.75;4981254;28;20497;-78
2021/06/23 04:55:05;;;;;;;22.83;7.45;;;;;;;16.73;100.00;98012.78;4982498;28;20038;-80
2021/06/23 04:57:36;;;;;;;18.90;7.60;;;;;;;16.64;100.00;98027.75;4995593;28;20053;-81
2021/06/23 05:00:04;;;;;;;16.77;7.20;;;;;;;16.67;100.00;98029.78;4994611;28;20050;-81
2021/06/23 05:02:31;;;;;;;20.70;7.50;;;;;;;16.64;100.00;98028.53;4977396;28;20042;-82
2021/06/23 05:04:57;;;;;;;14.95;6.97;;;;;;;16.42;100.00;98031.72;4998330;28;20093;-81
2021/06/23 05:07:26;;;;;;;13.88;7.65;;;;;;;16.51;100.00;98034.34;4987579;28;20438;-82
2021/06/23 05:09:55;;;;;;;19.70;7.35;;;;;;;16.63;100.00;98040.59;5004300;28;20050;-81
2021/06/23 05:12:28;;;;;;;13.07;5.38;;;;;;;16.99;100.00;98025.25;5002277;28;20042;-80
2021/06/23 05:14:58;;;;;;;12.35;7.20;;;;;;;16.67;100.00;98021.59;4993472;28;20483;-81
2021/06/23 05:17:25;;;;;;;19.17;7.38;;;;;;;16.84;100.00;98026.78;4998075;28;20050;-81
2021/06/23 05:19:52;;;;;;;18.75;7.50;;;;;;;16.91;100.00;98026.97;4988473;28;20272;-79
2021/06/23 05:22:18;;;;;;;12.18;7.25;;;;;;;16.83;100.00;98028.72;4993554;28;20042;-79
2021/06/23 05:24:45;;;;;;;16.08;7.10;;;;;;;16.91;100.00;98026.97;4995080;28;20042;-79
2021/06/23 05:27:16;;;;;;;14.18;7.43;;;;;;;16.87;100.00;98034.31;4974410;28;20458;-81
2021/06/23 05:29:42;;;;;;;16.35;8.13;;;;;;;16.80;100.00;98032.13;5003018;28;20053;-82
2021/06/23 05:32:09;;;;;;;15.85;7.63;;;;;;;16.76;100.00;98038.66;5002149;28;20067;-81
2021/06/23 05:34:36;;;;;;;13.93;7.47;;;;;;;16.79;100.00;98035.22;4984857;28;20404;-81
2021/06/23 05:37:03;;;;;;;14.13;7.57;;;;;;;16.96;100.00;98034.13;4984503;28;20060;-82
2021/06/23 05:39:31;;;;;;;13.32;6.97;;;;;;;17.04;100.00;98035.94;4984317;28;20038;-80
2021/06/23 05:41:58;;;;;;;21.00;7.65;;;;;;;17.07;100.00;98025.13;4982855;28;20050;-81
2021/06/23 05:44:25;;;;;;;17.30;7.60;;;;;;;17.12;100.00;98030.34;4982257;28;20065;-80
2021/06/23 05:46:52;;;;;;;19.33;8.68;;;;;;;17.03;100.00;98029.69;5001122;28;20065;-81
2021/06/23 05:49:19;;;;;;;25.92;8.80;;;;;;;16.98;100.00;98032.66;5001097;28;20078;-81
2021/06/23 05:51:46;;;;;;;21.33;9.02;;;;;;;16.95;100.00;98035.31;4967678;28;20046;-81
2021/06/23 05:54:13;;;;;;;22.25;9.27;;;;;;;16.93;100.00;98032.13;5000369;28;20066;-81
2021/06/23 05:56:40;;;;;;;17.75;8.98;;;;;;;17.13;100.00;98031.13;4983364;28;20550;-81
2021/06/23 05:59:06;;;;;;;18.15;7.65;;;;;;;17.16;100.00;98031.22;4982577;28;20042;-81
2021/06/23 06:01:33;;;;;;;15.98;8.30;;;;;;;17.18;100.00;98026.22;4999808;28;20046;-80
2021/06/23 06:04:00;;;;;;;18.00;8.40;;;;;;;17.06;100.00;98014.53;4982701;28;20596;-81
2021/06/23 06:06:27;;;;;;;16.92;7.75;;;;;;;17.06;100.00;98017.25;4982695;28;20046;-83
2021/06/23 06:08:53;;;;;;;17.48;8.70;;;;;;;16.86;100.00;98037.34;4981719;28;20054;-82
2021/06/23 06:11:20;;;;;;;18.00;8.50;;;;;;;16.91;100.00;98037.13;4998441;28;20043;-82
2021/06/23 06:13:47;;;;;;;20.23;8.27;;;;;;;16.96;100.00;98045.09;5000134;28;20216;-82
2021/06/23 06:16:14;;;;;;;22.67;9.05;;;;;;;16.99;100.00;98039.72;5000155;28;20039;-82
2021/06/23 06:18:40;;;;;;;17.08;8.52;;;;;;;16.94;100.00;98059.13;5000212;28;20082;-80
2021/06/23 06:21:08;;;;;;;18.52;9.05;;;;;;;16.71;100.00;98060.75;4999222;28;20046;-79
2021/06/23 06:23:36;;;;;;;20.08;9.68;;;;;;;16.61;100.00;98064.75;4999047;28;20379;-81
2021/06/23 06:26:03;;;;;;;15.50;9.20;;;;;;;16.75;100.00;98067.91;5001034;28;20046;-82
2021/06/23 06:28:33;;;;;;;22.73;9.48;;;;;;;16.91;100.00;98070.75;5001642;28;20102;-81
2021/06/23 06:31:00;;;;;;;26.67;9.48;;;;;;;17.00;100.00;98090.56;4984442;28;20061;-81
2021/06/23 06:33:30;;;;;;;21.77;8.88;;;;;;;17.02;100.00;98079.28;4985015;28;20062;-81
2021/06/23 06:35:57;;;;;;;19.92;9.23;;;;;;;17.12;100.00;98079.59;4984738;28;20100;-81
2021/06/23 06:38:24;;;;;;;19.60;9.50;;;;;;;17.08;100.00;98067.75;5002237;28;20046;-82
2021/06/23 06:40:50;;;;;;;23.17;9.98;;;;;;;17.04;100.00;98071.50;4985720;28;20054;-81
2021/06/23 06:43:17;;;;;;;18.45;9.27;;;;;;;16.96;100.00;98073.25;5002278;28;20053;-82
2021/06/23 06:45:48;;;;;;;20.10;9.40;;;;;;;16.95;100.00;98068.13;5002465;28;20093;-81
2021/06/23 06:48:21;;;;;;;27.90;9.30;;;;;;;17.00;100.00;98073.34;4985847;28;20124;-81
2021/06/23 06:50:49;;;;;;;19.38;9.25;;;;;;;16.99;100.00;98077.22;4986161;28;20061;-81
2021/06/23 06:53:16;;;;;;;17.40;9.77;;;;;;;16.93;100.00;98073.16;4985498;28;20080;-81
2021/06/23 06:55:43;;;;;;;19.23;8.68;;;;;;;16.83;100.00;98079.88;5001594;28;20043;-82
2021/06/23 06:58:10;;;;;;;23.08;9.80;;;;;;;16.77;100.00;98081.25;4984654;28;20047;-81
2021/06/23 07:00:38;;;;;;;15.88;9.43;;;;;;;16.64;100.00;98066.00;5032721;22;20053;-83
2021/06/23 07:03:06;;;;;;;19.35;9.65;;;;;;;16.70;100.00;98075.56;4996578;28;20355;-83
2021/06/23 07:05:33;;;;;;;24.60;10.27;;;;;;;16.52;100.00;98079.63;5012907;28;20145;-83
2021/06/23 07:08:00;;;;;;;19.67;9.63;;;;;;;16.54;100.00;98083.66;4997719;28;20100;-83
2021/06/23 07:10:36;;;;;;;17.73;9.68;;;;;;;16.29;100.00;98068.38;4998399;28;20112;-84
2021/06/23 07:13:05;;;;;;;19.40;9.68;;;;;;;16.46;100.00;98091.97;4999765;28;20046;-84
2021/06/23 07:15:33;;;;;;;16.92;9.27;;;;;;;16.71;100.00;98086.16;4983250;28;20569;-86
2021/06/23 07:18:00;;;;;;;17.50;9.82;;;;;;;16.87;100.00;98082.72;5002115;28;20137;-85
2021/06/23 07:20:35;;;;;;;18.63;8.70;;;;;;;16.73;100.00;98089.34;5000181;28;20046;-84
2021/06/23 07:23:03;;;;;;;17.33;8.63;;;;;;;16.60;100.00;98070.56;4998871;28;20054;-84
2021/06/23 07:25:30;;;;;;;21.25;8.77;;;;;;;16.85;100.00;98094.03;4982649;28;20049;-84
2021/06/23 07:28:00;;;;;;;18.58;8.55;;;;;;;16.82;100.00;98081.03;4985932;28;20045;-83
2021/06/23 07:30:28;;;;;;;23.35;10.35;;;;;;;16.99;100.00;98099.09;5020726;28;20517;-84
2021/06/23 07:33:02;;;;;;;18.35;8.65;;;;;;;16.86;100.00;98090.13;4991142;28;20072;-84
2021/06/23 07:38:23;;;;;;;22.45;9.15;;;;;;;16.73;100.00;98115.88;5023214;28;20041;-82
2021/06/23 07:43:28;;;;;;;17.35;9.10;;;;;;;16.54;100.00;98127.38;5003696;28;20050;-84
2021/06/23 07:45:58;;;;;;;23.75;9.63;;;;;;;16.68;100.00;98146.19;4984452;28;20046;-83
2021/06/23 07:48:36;;;;;;;23.70;9.60;;;;;;;16.52;100.00;98120.63;4996200;28;20474;-83
2021/06/23 07:53:49;;;;;;;23.67;10.02;;;;;;;16.86;100.00;98133.88;4996899;28;20092;-85
2021/06/23 07:56:36;;;;;;;17.55;9.40;;;;;;;16.76;100.00;98098.81;4987835;28;20049;-84
2021/06/23 08:10:09;;;;;;;22.73;11.37;;;;;;;16.61;100.00;98091.28;4993484;28;20141;-83
2021/06/23 08:12:50;;;;;;;21.98;10.30;;;;;;;16.63;100.00;98099.94;5012777;28;20289;-83
2021/06/23 08:15:17;;;;;;;25.92;10.65;;;;;;;16.41;100.00;98117.59;4995298;28;20049;-84
2021/06/23 08:17:44;;;;;;;21.63;11.20;;;;;;;16.62;100.00;98112.81;4995671;28;20145;-83
2021/06/23 08:20:12;;;;;;;22.15;10.27;;;;;;;16.71;100.00;98116.25;4980475;28;20041;-82
2021/06/23 08:22:39;;;;;;;27.50;10.27;;;;;;;16.45;100.00;98114.94;4982524;28;20050;-81
2021/06/23 08:25:06;;;;;;;21.15;10.75;;;;;;;16.37;100.00;98122.13;4998509;28;20052;-83
2021/06/23 08:27:37;;;;;;;21.55;11.48;;;;;;;16.54;100.00;98130.13;4981529;28;20112;-82
2021/06/23 08:30:06;;;;;;;26.00;11.30;;;;;;;16.78;100.00;98134.78;4981239;28;20046;-84
2021/06/23 08:32:33;;;;;;;22.05;10.65;;;;;;;17.01;100.00;98124.97;4976219;28;20050;-82
2021/06/23 08:34:59;;;;;;;20.23;10.63;;;;;;;17.14;100.00;98109.31;4975193;28;20042;-83
2021/06/23 08:37:26;;;;;;;21.50;9.93;;;;;;;17.32;100.00;98114.19;4975950;28;20076;-82
2021/06/23 08:39:53;;;;;;;23.63;9.95;;;;;;;17.56;100.00;98112.53;4958883;28;20154;-82
2021/06/23 08:42:24;;;;;;;18.95;9.40;;;;;;;17.75;100.00;98110.75;4960125;28;20046;-84
2021/06/23 08:44:53;;;;;;;15.20;8.75;;;;;;;17.88;100.00;98120.50;4991109;28;20050;-85
2021/06/23 08:47:21;;;;;;;22.77;9.00;;;;;;;17.89;100.00;98121.28;4993742;28;20046;-83
2021/06/23 08:49:47;;;;;;;21.35;9.07;;;;;;;17.97;100.00;98131.28;4976691;28;20061;-81
2021/06/23 08:52:14;;;;;;;17.80;9.63;;;;;;;17.61;100.00;98131.44;4977285;28;20051;-82
2021/06/23 08:54:42;;;;;;;19.10;9.38;;;;;;;17.74;100.00;98139.28;4960883;28;20046;-82
2021/06/23 08:57:10;;;;;;;17.95;9.27;;;;;;;17.83;100.00;98139.13;4961179;28;20042;-84
2021/06/23 08:59:41;;;;;;;18.20;9.88;;;;;;;17.89;100.00;98145.94;4976352;28;20062;-83
2021/06/23 09:02:14;;;;;;;19.13;9.90;;;;;;;17.81;100.00;98150.41;4978036;28;20307;-84
2021/06/23 09:05:03;;;;;;;17.13;9.85;;;;;;;17.89;100.00;98149.47;4977824;28;20257;-83
2021/06/23 09:07:59;;;;;;;15.55;9.65;;;;;;;17.84;100.00;98152.47;4985458;28;20052;-82
2021/06/23 09:10:28;;;;;;;19.40;10.60;;;;;;;17.75;100.00;98159.25;4974128;28;20062;-83
2021/06/23 09:13:06;;;;;;;19.02;10.85;;;;;;;17.70;100.00;98160.28;4977731;28;20049;-82
2021/06/23 09:15:58;;;;;;;15.45;9.77;;;;;;;18.07;100.00;98157.41;4991742;28;20434;-83
2021/06/23 09:18:36;;;;;;;20.52;10.77;;;;;;;18.25;100.00;98162.16;5004323;28;20050;-82
2021/06/23 09:21:16;;;;;;;13.27;9.75;;;;;;;18.38;100.00;98152.72;5005881;28;20057;-83
2021/06/23 09:23:50;;;;;;;25.08;11.00;;;;;;;18.61;100.00;98142.75;5020865;28;20054;-84
2021/06/23 09:26:24;;;;;;;14.38;9.35;;;;;;;18.90;100.00;98140.69;4987810;28;20136;-83
2021/06/23 09:29:15;;;;;;;13.60;8.93;;;;;;;19.47;100.00;98140.03;4980419;28;20380;-84
2021/06/23 09:31:54;;;;;;;13.52;8.73;;;;;;;19.85;100.00;98140.81;5002619;28;20038;-84
2021/06/23 09:34:28;;;;;;;12.07;7.72;;;;;;;19.78;100.00;98137.16;4999315;28;20104;-84
2021/06/23 09:36:56;;;;;;;14.38;9.05;;;;;;;19.24;100.00;98140.72;5000438;28;20391;-83
2021/06/23 09:39:25;;;;;;;15.10;8.63;;;;;;;19.24;100.00;98148.16;5032152;28;20049;-82
2021/06/23 09:41:53;;;;;;;17.63;9.00;;;;;;;19.24;100.00;98159.13;5033821;28;20042;-83
2021/06/23 09:44:21;;;;;;;15.57;8.95;;;;;;;18.94;100.00;98153.38;5037993;28;20046;-84
2021/06/23 09:46:50;;;;;;;18.73;8.18;;;;;;;19.52;100.00;98153.47;5019713;28;20343;-84
2021/06/23 09:49:25;;;;;;;13.38;7.85;;;;;;;19.49;100.00;98146.75;5018584;28;20486;-84
2021/06/23 09:51:55;;;;;;;12.40;8.07;;;;;;;19.23;100.00;98163.03;5000060;28;20049;-84
2021/06/23 09:54:29;;;;;;;13.88;8.32;;;;;;;19.51;100.00;98155.41;5014206;28;20041;-84
2021/06/23 09:57:03;;;;;;;13.30;7.85;;;;;;;19.33;100.00;98148.72;5012947;28;20128;-85
2021/06/23 09:59:37;;;;;;;13.27;9.13;;;;;;;19.00;100.00;98143.69;4996700;28;20112;-84
2021/06/23 10:02:22;;;;;;;14.35;8.50;;;;;;;19.15;100.00;98153.06;4999528;28;20069;-84
2021/06/23 10:04:52;;;;;;;13.20;7.18;;;;;;;19.28;100.00;98157.25;5000198;28;20564;-86
2021/06/23 10:07:49;;;;;;;12.77;8.05;;;;;;;19.31;100.00;98164.78;5000799;28;20289;-83
2021/06/23 10:10:18;;;;;;;16.92;8.45;;;;;;;19.03;100.00;98164.94;5017433;28;20049;-82
2021/06/23 10:12:47;;;;;;;16.88;8.98;;;;;;;19.11;100.00;98169.44;5015094;28;20045;-85
2021/06/23 10:15:14;;;;;;;11.57;8.75;;;;;;;18.87;100.00;98172.38;4981069;28;20050;-83
2021/06/23 10:17:42;;;;;;;15.05;8.75;;;;;;;18.84;100.00;98184.06;5015847;28;20052;-83
2021/06/23 10:20:10;;;;;;;12.15;8.27;;;;;;;19.17;100.00;98167.22;4981472;28;20053;-83
2021/06/23 10:22:39;;;;;;;17.83;8.75;;;;;;;19.18;100.00;98174.28;4982173;28;20057;-84
2021/06/23 10:25:08;;;;;;;13.80;8.73;;;;;;;19.30;100.00;98169.47;5005532;28;20045;-85
2021/06/23 10:27:39;;;;;;;12.57;8.30;;;;;;;19.58;100.00;98177.56;5035073;28;20046;-83
2021/06/23 10:30:07;;;;;;;13.25;8.57;;;;;;;19.95;100.00;98153.16;5028586;28;20037;-85
2021/06/23 10:32:36;;;;;;;13.15;9.00;;;;;;;20.14;100.00;98168.84;5003870;28;20037;-83
2021/06/23 10:35:07;;;;;;;17.63;8.20;;;;;;;20.13;100.00;98162.56;4981368;28;20050;-84
2021/06/23 10:37:41;;;;;;;10.60;7.90;;;;;;;20.26;100.00;98158.50;4982074;28;20057;-83
2021/06/23 10:40:18;;;;;;;15.75;8.18;;;;;;;20.24;100.00;98162.78;4996578;28;20077;-83
2021/06/23 10:42:45;;;;;;;17.67;9.20;;;;;;;20.23;100.00;98139.19;5017816;28;20080;-83
2021/06/23 10:45:14;;;;;;;16.23;8.95;;;;;;;20.33;100.00;98160.63;5008488;28;20045;-83
2021/06/23 10:47:47;;;;;;;11.93;7.78;;;;;;;19.97;100.00;98147.34;5016932;28;20116;-84
2021/06/23 10:50:32;;;;;;;13.10;7.45;;;;;;;20.30;100.00;98164.88;5016869;28;20057;-83
2021/06/23 10:53:20;;;;;;;11.77;7.45;;;;;;;20.22;100.00;98149.38;4999796;28;20053;-84
2021/06/23 10:55:47;;;;;;;14.25;8.07;;;;;;;20.01;100.00;98157.22;4999498;28;20038;-83
2021/06/23 10:58:16;;;;;;;16.05;8.05;;;;;;;19.94;100.00;98161.78;5017952;28;20064;-83
2021/06/23 11:00:48;;;;;;;12.25;8.10;;;;;;;19.71;100.00;98173.53;5001599;28;20049;-85
2021/06/23 11:03:18;;;;;;;16.50;8.40;;;;;;;19.67;100.00;98169.91;5018527;28;20046;-83
2021/06/23 11:05:51;;;;;;;14.20;8.50;;;;;;;19.84;100.00;98177.72;5017148;28;20068;-83
2021/06/23 11:08:34;;;;;;;12.68;8.40;;;;;;;19.63;100.00;98149.81;5018332;28;20045;-84
2021/06/23 11:11:07;;;;;;;15.18;8.15;;;;;;;19.65;100.00;98174.16;5019133;28;20448;-84
2021/06/23 11:13:37;;;;;;;18.63;8.93;;;;;;;19.55;100.00;98164.56;5020702;28;20053;-84
2021/06/23 11:16:06;;;;;;;16.65;8.25;;;;;;;19.72;100.00;98179.78;5017679;28;20064;-84
2021/06/23 11:18:38;;;;;;;14.98;7.70;;;;;;;19.68;100.00;98178.94;4999718;28;20469;-84
2021/06/23 11:21:22;;;;;;;13.93;8.18;;;;;;;19.88;100.00;98177.78;4999195;28;20143;-83
2021/06/23 11:24:01;;;;;;;12.13;8.40;;;;;;;19.74;100.00;98172.78;5001350;28;20080;-83
2021/06/23 11:26:31;;;;;;;15.55;8.35;;;;;;;19.76;100.00;98192.47;5014106;28;20041;-84
2021/06/23 11:29:23;;;;;;;13.68;8.27;;;;;;;19.59;100.00;98154.41;5016561;28;20045;-84
2021/06/23 11:32:25;;;;;;;;;;;;;;;;;;;;;
2021/06/23 11:35:01;;;;;;;16.17;8.80;;;;;;;19.20;100.00;98166.50;5036603;28;20076;-82
2021/06/23 11:37:44;;;;;;;18.08;8.93;;;;;;;19.51;100.00;98169.16;5019384;28;20051;-83
2021/06/23 11:40:36;;;;;;;13.45;9.32;;;;;;;19.51;100.00;98174.66;5006518;28;20079;-82
2021/06/23 11:43:03;;;;;;;11.95;8.88;;;;;;;19.77;100.00;98174.81;5001101;28;20056;-83
2021/06/23 11:45:42;;;;;;;14.10;8.48;;;;;;;19.65;100.00;98154.94;5016638;28;20112;-82
2021/06/23 11:48:18;;;;;;;16.17;9.90;;;;;;;19.64;100.00;98156.09;5034865;28;20406;-83
2021/06/23 11:50:54;;;;;;;14.10;9.20;;;;;;;19.83;100.00;98187.13;5018765;28;20073;-85
2021/06/23 11:53:23;;;;;;;15.63;10.38;;;;;;;19.77;100.00;98163.81;5036982;28;20071;-84